createdAt,value
2017-07-08T00:01:51.329Z,21.40
2017-07-08T00:04:19.598Z,21.50
2017-07-08T00:06:47.866Z,21.50
2017-07-08T00:09:17.144Z,21.40
2017-07-08T00:11:46.180Z,21.40
2017-07-08T00:14:14.456Z,21.40
2017-07-08T00:16:42.768Z,21.40
2017-07-08T00:19:11.044Z,21.30
2017-07-08T00:21:39.309Z,21.30
2017-07-08T00:24:07.637Z,21.30
2017-07-08T00:26:36.674Z,21.20
2017-07-08T00:29:04.948Z,21.10
2017-07-08T00:31:33.259Z,21.20
2017-07-08T00:34:01.529Z,21.10
2017-07-08T00:36:29.796Z,21.00
2017-07-08T00:38:58.221Z,20.90
2017-07-08T00:41:27.260Z,20.90
2017-07-08T00:43:55.529Z,20.80
2017-07-08T00:46:23.832Z,20.80
2017-07-08T00:48:52.865Z,20.70
2017-07-08T00:51:21.140Z,20.70
2017-07-08T00:53:49.729Z,20.60
2017-07-08T00:56:18.761Z,20.60
2017-07-08T00:58:47.033Z,20.50
2017-07-08T01:01:15.450Z,20.50
2017-07-08T01:03:44.480Z,20.40
2017-07-08T01:06:12.748Z,20.30
2017-07-08T01:08:41.241Z,20.50
2017-07-08T01:11:10.280Z,20.30
2017-07-08T01:13:38.545Z,20.20
2017-07-08T01:16:06.849Z,20.20
2017-07-08T01:18:35.885Z,20.10
2017-07-08T01:21:04.160Z,20.10
2017-07-08T01:23:32.651Z,20.10
2017-07-08T01:26:01.685Z,20.10
2017-07-08T01:28:29.953Z,20.00
2017-07-08T01:30:58.298Z,19.90
2017-07-08T01:33:26.569Z,19.80
2017-07-08T01:35:54.836Z,19.80
2017-07-08T01:38:23.148Z,19.80
2017-07-08T01:40:52.185Z,19.70
2017-07-08T01:43:20.452Z,19.60
2017-07-08T01:45:48.756Z,19.60
2017-07-08T01:48:17.025Z,19.50
2017-07-08T01:50:45.292Z,19.50
2017-07-08T01:53:13.597Z,19.40
2017-07-08T01:55:41.868Z,19.50
2017-07-08T01:58:10.137Z,19.50
2017-07-08T02:00:39.432Z,19.60
2017-07-08T02:03:08.468Z,19.60
2017-07-08T02:05:36.745Z,19.60
2017-07-08T02:08:05.228Z,19.50
2017-07-08T02:10:33.511Z,19.50
2017-07-08T02:13:02.550Z,19.50
2017-07-08T02:15:30.857Z,19.50
2017-07-08T02:17:59.128Z,19.50
2017-07-08T02:20:27.418Z,19.40
2017-07-08T02:22:56.632Z,19.40
2017-07-08T02:25:28.440Z,19.30
2017-07-08T02:27:56.732Z,19.20
2017-07-08T02:30:25.035Z,19.10
2017-07-08T02:32:53.304Z,19.20
2017-07-08T02:35:21.623Z,19.00
2017-07-08T02:37:49.900Z,19.20
2017-07-08T02:40:19.049Z,19.10
2017-07-08T02:42:47.542Z,19.00
2017-07-08T02:45:16.581Z,18.90
2017-07-08T02:47:44.856Z,18.80
2017-07-08T02:50:13.177Z,18.80
2017-07-08T02:52:41.457Z,18.90
2017-07-08T02:55:09.724Z,18.70
2017-07-08T02:57:38.036Z,18.70
2017-07-08T03:00:07.085Z,18.60
2017-07-08T03:02:35.361Z,18.60
2017-07-08T03:05:03.676Z,18.80
2017-07-08T03:07:31.947Z,18.70
2017-07-08T03:10:00.236Z,18.60
2017-07-08T03:12:28.541Z,18.50
2017-07-08T03:14:56.817Z,18.50
2017-07-08T03:17:25.088Z,18.60
2017-07-08T03:19:53.413Z,18.50
2017-07-08T03:22:22.457Z,18.60
2017-07-08T03:24:50.728Z,18.50
2017-07-08T03:27:19.062Z,18.50
2017-07-08T03:29:47.332Z,18.40
2017-07-08T03:32:15.613Z,18.40
2017-07-08T03:34:44.097Z,18.30
2017-07-08T03:37:13.133Z,18.30
2017-07-08T03:39:41.416Z,18.30
2017-07-08T03:42:09.731Z,18.30
2017-07-08T03:44:38.014Z,18.30
2017-07-08T03:47:06.291Z,18.30
2017-07-08T03:49:34.610Z,18.30
2017-07-08T03:52:02.892Z,18.30
2017-07-08T03:54:31.173Z,18.20
2017-07-08T03:56:59.472Z,18.30
2017-07-08T03:59:28.521Z,18.30
2017-07-08T04:01:56.792Z,18.20
2017-07-08T04:04:25.113Z,18.30
2017-07-08T04:06:53.389Z,18.40
2017-07-08T04:09:21.665Z,18.40
2017-07-08T04:11:49.991Z,18.40
2017-07-08T04:14:18.264Z,18.40
2017-07-08T04:16:46.548Z,18.40
2017-07-08T04:19:15.041Z,18.50
2017-07-08T04:21:44.085Z,18.50
2017-07-08T04:24:12.360Z,18.50
2017-07-08T04:26:40.850Z,18.60
2017-07-08T04:29:09.899Z,18.60
2017-07-08T04:31:38.180Z,18.60
2017-07-08T04:34:06.504Z,18.70
2017-07-08T04:36:34.787Z,18.70
2017-07-08T04:39:03.060Z,18.70
2017-07-08T04:41:31.380Z,18.80
2017-07-08T04:43:59.664Z,18.90
2017-07-08T04:46:27.936Z,19.00
2017-07-08T04:48:56.249Z,19.10
2017-07-08T04:51:24.528Z,19.10
2017-07-08T04:53:52.809Z,19.10
2017-07-08T04:56:21.127Z,19.30
2017-07-08T04:58:49.396Z,19.50
2017-07-08T05:01:17.676Z,19.50
2017-07-08T05:03:46.089Z,19.60
2017-07-08T05:06:15.128Z,19.70
2017-07-08T05:08:44.925Z,19.80
2017-07-08T05:11:13.239Z,19.70
2017-07-08T05:13:41.529Z,19.80
2017-07-08T05:16:09.797Z,19.90
2017-07-08T05:18:38.100Z,19.90
2017-07-08T05:21:06.375Z,20.00
2017-07-08T05:23:34.648Z,20.10
2017-07-08T05:26:02.972Z,20.20
2017-07-08T05:28:31.236Z,20.30
2017-07-08T05:30:59.500Z,20.40
2017-07-08T05:33:27.804Z,20.50
2017-07-08T05:35:56.069Z,20.60
2017-07-08T05:38:24.339Z,20.70
2017-07-08T05:40:52.649Z,20.70
2017-07-08T05:43:20.914Z,20.90
2017-07-08T05:45:49.181Z,21.00
2017-07-08T05:48:17.484Z,21.10
2017-07-08T05:50:45.757Z,21.10
2017-07-08T05:53:14.029Z,21.10
2017-07-08T05:55:42.435Z,21.20
2017-07-08T05:58:10.702Z,21.20
2017-07-08T06:00:39.741Z,21.40
2017-07-08T06:03:08.450Z,21.30
2017-07-08T06:05:37.484Z,21.60
2017-07-08T06:08:05.764Z,21.50
2017-07-08T06:10:34.573Z,21.60
2017-07-08T06:13:03.602Z,21.80
2017-07-08T06:15:31.865Z,21.70
2017-07-08T06:18:00.176Z,21.80
2017-07-08T06:20:29.213Z,22.10
2017-07-08T06:22:57.479Z,22.00
2017-07-08T06:25:26.074Z,22.20
2017-07-08T06:27:55.109Z,22.40
2017-07-08T06:30:23.410Z,22.30
2017-07-08T06:32:52.581Z,22.70
2017-07-08T06:35:20.848Z,22.60
2017-07-08T06:37:49.117Z,22.80
2017-07-08T06:40:18.191Z,22.90
2017-07-08T06:42:47.224Z,22.90
2017-07-08T06:45:15.493Z,22.80
2017-07-08T06:47:43.817Z,23.00
2017-07-08T06:50:12.084Z,23.00
2017-07-08T06:52:40.360Z,23.00
2017-07-08T06:55:08.667Z,23.10
2017-07-08T06:57:36.936Z,23.20
2017-07-08T07:00:05.981Z,23.20
2017-07-08T07:02:34.489Z,23.20
2017-07-08T07:05:03.527Z,23.30
2017-07-08T07:07:31.808Z,23.30
2017-07-08T07:10:00.120Z,23.60
2017-07-08T07:12:28.398Z,23.70
2017-07-08T07:14:56.673Z,23.70
2017-07-08T07:17:25.072Z,23.70
2017-07-08T07:19:54.109Z,23.90
2017-07-08T07:22:22.375Z,23.80
2017-07-08T07:24:50.684Z,24.00
2017-07-08T07:27:19.720Z,24.00
2017-07-08T07:29:47.989Z,23.90
2017-07-08T07:32:16.304Z,24.10
2017-07-08T07:34:44.573Z,24.20
2017-07-08T07:37:12.840Z,24.30
2017-07-08T07:39:41.277Z,24.40
2017-07-08T07:42:10.312Z,24.70
2017-07-08T07:44:38.584Z,24.70
2017-07-08T07:47:06.896Z,24.70
2017-07-08T07:49:35.168Z,24.80
2017-07-08T07:52:03.441Z,25.00
2017-07-08T07:54:31.753Z,25.00
2017-07-08T07:57:00.788Z,25.20
2017-07-08T07:59:29.062Z,25.10
2017-07-08T08:01:57.380Z,25.30
2017-07-08T08:04:25.651Z,25.40
2017-07-08T08:06:53.925Z,25.70
2017-07-08T08:09:22.237Z,25.90
2017-07-08T08:11:51.284Z,26.00
2017-07-08T08:14:19.552Z,26.00
2017-07-08T08:16:47.860Z,26.20
2017-07-08T08:19:16.136Z,26.30
2017-07-08T08:21:44.425Z,26.30
2017-07-08T08:24:12.728Z,26.30
2017-07-08T08:26:41.787Z,26.50
2017-07-08T08:29:10.069Z,26.40
2017-07-08T08:31:39.151Z,26.80
2017-07-08T08:34:08.201Z,26.90
2017-07-08T08:36:36.486Z,26.90
2017-07-08T08:39:04.812Z,26.90
2017-07-08T08:41:33.099Z,27.00
2017-07-08T08:44:01.372Z,27.00
2017-07-08T08:46:30.475Z,27.20
2017-07-08T08:48:58.777Z,27.20
2017-07-08T08:51:27.058Z,27.40
2017-07-08T08:53:55.372Z,27.50
2017-07-08T08:56:23.646Z,27.60
2017-07-08T08:58:51.921Z,27.70
2017-07-08T09:01:20.237Z,27.90
2017-07-08T09:03:48.512Z,28.00
2017-07-08T09:06:16.784Z,28.10
2017-07-08T09:08:45.429Z,28.20
2017-07-08T09:11:14.038Z,28.30
2017-07-08T09:13:42.317Z,28.40
2017-07-08T09:16:10.636Z,28.60
2017-07-08T09:18:38.913Z,28.70
2017-07-08T09:21:07.192Z,28.50
2017-07-08T09:23:35.517Z,28.30
2017-07-08T09:26:03.804Z,28.10
2017-07-08T09:28:32.081Z,28.00
2017-07-08T09:31:00.391Z,27.90
2017-07-08T09:33:28.669Z,27.80
2017-07-08T09:35:56.949Z,27.80
2017-07-08T09:38:25.257Z,28.10
2017-07-08T09:40:54.306Z,28.60
2017-07-08T09:43:22.576Z,28.60
2017-07-08T09:45:50.889Z,28.50
2017-07-08T09:48:19.168Z,28.60
2017-07-08T09:50:47.445Z,28.70
2017-07-08T09:53:15.844Z,28.90
2017-07-08T09:55:44.114Z,29.10
2017-07-08T09:58:13.156Z,29.20
2017-07-08T10:00:41.667Z,29.20
2017-07-08T10:03:10.700Z,28.70
2017-07-08T10:05:38.978Z,28.70
2017-07-08T10:08:07.463Z,28.70
2017-07-08T10:10:36.536Z,29.00
2017-07-08T10:13:04.832Z,29.00
2017-07-08T10:15:33.144Z,29.50
2017-07-08T10:18:01.420Z,29.80
2017-07-08T10:20:29.689Z,29.90
2017-07-08T10:22:58.924Z,29.80
2017-07-08T10:25:27.205Z,29.70
2017-07-08T10:27:55.486Z,29.70
2017-07-08T10:30:23.800Z,29.80
2017-07-08T10:32:52.073Z,30.20
2017-07-08T10:35:20.366Z,30.10
2017-07-08T10:37:49.761Z,29.80
2017-07-08T10:40:18.801Z,30.00
2017-07-08T10:42:47.065Z,30.00
2017-07-08T10:45:15.404Z,30.20
2017-07-08T10:47:43.676Z,30.10
2017-07-08T10:50:11.953Z,30.10
2017-07-08T10:52:40.474Z,30.20
2017-07-08T10:55:09.493Z,30.20
2017-07-08T10:57:37.776Z,30.10
2017-07-08T11:00:06.089Z,29.90
2017-07-08T11:02:34.372Z,29.60
2017-07-08T11:05:02.636Z,29.50
2017-07-08T11:07:30.941Z,29.70
2017-07-08T11:10:00.002Z,30.40
2017-07-08T11:12:28.309Z,30.30
2017-07-08T11:14:56.750Z,30.50
2017-07-08T11:17:25.784Z,29.90
2017-07-08T11:19:54.065Z,29.80
2017-07-08T11:22:22.377Z,30.00
2017-07-08T11:24:50.664Z,30.00
2017-07-08T11:27:18.941Z,30.00
2017-07-08T11:29:47.257Z,29.90
2017-07-08T11:32:15.537Z,29.90
2017-07-08T11:34:43.820Z,30.10
2017-07-08T11:37:12.139Z,30.30
2017-07-08T11:39:40.444Z,30.50
2017-07-08T11:42:10.645Z,30.60
2017-07-08T11:44:38.948Z,30.70
2017-07-08T11:47:07.989Z,30.50
2017-07-08T11:49:36.268Z,30.50
2017-07-08T11:52:04.591Z,30.20
2017-07-08T11:54:32.912Z,30.30
2017-07-08T11:57:01.172Z,30.70
2017-07-08T11:59:29.481Z,31.10
2017-07-08T12:01:57.745Z,31.10
2017-07-08T12:04:26.021Z,31.10
2017-07-08T12:06:54.330Z,31.00
2017-07-08T12:09:22.623Z,31.00
2017-07-08T12:11:50.889Z,31.00
2017-07-08T12:14:19.380Z,31.10
2017-07-08T12:16:47.657Z,31.20
2017-07-08T12:19:15.924Z,31.50
2017-07-08T12:21:44.249Z,31.70
2017-07-08T12:24:12.521Z,31.90
2017-07-08T12:26:40.813Z,32.00
2017-07-08T12:29:09.126Z,31.70
2017-07-08T12:31:38.429Z,31.10
2017-07-08T12:34:06.704Z,30.90
2017-07-08T12:36:35.016Z,30.60
2017-07-08T12:39:03.304Z,30.40
2017-07-08T12:41:31.574Z,30.30
2017-07-08T12:43:59.906Z,30.10
2017-07-08T12:46:28.177Z,29.80
2017-07-08T12:48:56.442Z,29.60
2017-07-08T12:51:24.749Z,29.60
2017-07-08T12:56:30.765Z,29.90
2017-07-08T12:58:59.027Z,30.40
2017-07-08T13:01:27.377Z,30.50
2017-07-08T13:03:55.680Z,30.50
2017-07-08T13:06:23.963Z,30.60
2017-07-08T13:08:52.996Z,30.50
2017-07-08T13:11:21.348Z,30.40
2017-07-08T13:13:49.621Z,30.50
2017-07-08T13:16:17.889Z,30.50
2017-07-08T13:18:46.195Z,30.30
2017-07-08T13:21:14.485Z,30.50
2017-07-08T13:23:42.766Z,31.00
2017-07-08T13:26:11.161Z,31.40
2017-07-08T13:28:40.202Z,31.60
2017-07-08T13:31:08.481Z,31.50
2017-07-08T13:33:36.776Z,31.80
2017-07-08T13:36:05.816Z,32.20
2017-07-08T13:38:34.138Z,32.10
2017-07-08T13:41:02.433Z,31.90
2017-07-08T13:43:30.709Z,31.40
2017-07-08T13:45:58.981Z,31.00
2017-07-08T13:48:27.669Z,30.80
2017-07-08T13:50:56.705Z,30.40
2017-07-08T13:53:24.979Z,30.30
2017-07-08T13:55:53.284Z,30.20
2017-07-08T13:58:21.556Z,30.10
2017-07-08T14:00:49.828Z,30.00
2017-07-08T14:03:18.229Z,29.90
2017-07-08T14:05:46.503Z,29.90
2017-07-08T14:08:14.778Z,29.90
2017-07-08T14:10:43.097Z,30.10
2017-07-08T14:13:11.381Z,30.40
2017-07-08T14:15:39.652Z,30.40
2017-07-08T14:18:08.748Z,30.00
2017-07-08T14:20:37.032Z,29.90
2017-07-08T14:23:05.300Z,30.00
2017-07-08T14:25:33.823Z,29.90
2017-07-08T14:28:02.860Z,29.70
2017-07-08T14:30:31.133Z,29.70
2017-07-08T14:32:59.453Z,29.70
2017-07-08T14:35:27.728Z,29.70
2017-07-08T14:37:56.005Z,29.80
2017-07-08T14:40:24.320Z,29.90
2017-07-08T14:42:52.596Z,30.20
2017-07-08T14:45:20.884Z,30.10
2017-07-08T14:47:49.188Z,30.10
2017-07-08T14:50:17.457Z,30.20
2017-07-08T14:52:46.496Z,30.90
2017-07-08T14:55:15.000Z,30.90
2017-07-08T14:57:44.036Z,31.80
2017-07-08T15:00:12.305Z,31.70
2017-07-08T15:02:40.608Z,32.00
2017-07-08T15:05:09.645Z,32.30
2017-07-08T15:07:37.920Z,32.30
2017-07-08T15:10:06.241Z,32.30
2017-07-08T15:12:34.518Z,32.00
2017-07-08T15:15:02.794Z,31.80
2017-07-08T15:17:31.409Z,31.70
2017-07-08T15:19:59.676Z,31.50
2017-07-08T15:22:27.952Z,31.20
2017-07-08T15:24:56.265Z,31.10
2017-07-08T15:27:24.532Z,31.10
2017-07-08T15:29:52.796Z,30.80
2017-07-08T15:32:21.100Z,30.70
2017-07-08T15:34:49.375Z,30.80
2017-07-08T15:37:17.644Z,30.90
2017-07-08T15:39:45.960Z,30.80
2017-07-08T15:42:14.232Z,30.50
2017-07-08T15:44:42.520Z,30.40
2017-07-08T15:47:10.844Z,30.40
2017-07-08T15:49:39.885Z,30.30
2017-07-08T15:52:08.152Z,30.30
2017-07-08T15:54:36.466Z,30.30
2017-07-08T15:57:04.741Z,30.30
2017-07-08T15:59:33.608Z,30.40
2017-07-08T16:02:01.912Z,30.30
2017-07-08T16:04:30.181Z,30.20
2017-07-08T16:06:58.448Z,30.10
2017-07-08T16:09:26.753Z,30.00
2017-07-08T16:11:55.024Z,29.80
2017-07-08T16:14:23.292Z,29.80
2017-07-08T16:16:51.700Z,29.70
2017-07-08T16:19:21.649Z,29.90
2017-07-08T16:21:49.924Z,29.80
2017-07-08T16:24:18.233Z,29.90
2017-07-08T16:26:47.268Z,29.80
2017-07-08T16:29:15.545Z,29.70
2017-07-08T16:31:43.856Z,29.60
2017-07-08T16:34:12.138Z,29.40
2017-07-08T16:36:40.412Z,29.40
2017-07-08T16:39:08.717Z,29.30
2017-07-08T16:41:37.916Z,29.30
2017-07-08T16:44:06.188Z,29.30
2017-07-08T16:46:34.502Z,29.30
2017-07-08T16:49:02.772Z,29.30
2017-07-08T16:51:31.821Z,29.10
2017-07-08T16:54:00.120Z,29.10
2017-07-08T16:56:29.169Z,29.10
2017-07-08T16:58:57.449Z,29.10
2017-07-08T17:01:25.776Z,29.00
2017-07-08T17:03:54.094Z,28.90
2017-07-08T17:06:22.368Z,29.10
2017-07-08T17:08:50.812Z,29.00
2017-07-08T17:11:19.897Z,28.90
2017-07-08T17:13:48.165Z,28.90
2017-07-08T17:16:16.477Z,28.80
2017-07-08T17:18:44.765Z,28.70
2017-07-08T17:21:13.041Z,28.60
2017-07-08T17:23:42.217Z,28.60
2017-07-08T17:26:11.268Z,28.60
2017-07-08T17:28:39.988Z,28.50
2017-07-08T17:31:08.319Z,28.50
2017-07-08T17:33:36.904Z,28.50
2017-07-08T17:36:05.176Z,28.60
2017-07-08T17:38:34.454Z,28.60
2017-07-08T17:41:04.157Z,28.40
2017-07-08T17:43:32.432Z,28.40
2017-07-08T17:46:00.750Z,28.30
2017-07-08T17:48:29.025Z,28.30
2017-07-08T17:50:58.069Z,28.20
2017-07-08T17:53:26.396Z,28.20
2017-07-08T17:55:54.678Z,27.90
2017-07-08T17:58:22.956Z,27.80
2017-07-08T18:00:51.285Z,27.90
2017-07-08T18:03:19.576Z,27.80
2017-07-08T18:05:47.849Z,27.80
2017-07-08T18:08:16.341Z,27.80
2017-07-08T18:10:44.638Z,27.80
2017-07-08T18:13:12.909Z,27.90
2017-07-08T18:15:41.221Z,27.90
2017-07-08T18:18:10.265Z,27.70
2017-07-08T18:20:38.545Z,27.60
2017-07-08T18:23:06.875Z,27.70
2017-07-08T18:25:35.152Z,27.60
2017-07-08T18:28:03.424Z,27.60
2017-07-08T18:30:31.736Z,27.50
2017-07-08T18:33:00.020Z,27.40
2017-07-08T18:35:28.315Z,27.40
2017-07-08T18:37:56.801Z,27.30
2017-07-08T18:40:25.840Z,27.20
2017-07-08T18:42:54.116Z,27.10
2017-07-08T18:45:22.452Z,27.10
2017-07-08T18:47:50.734Z,27.10
2017-07-08T18:50:19.005Z,27.10
2017-07-08T18:52:47.313Z,27.10
2017-07-08T18:55:15.676Z,27.00
2017-07-08T18:57:43.953Z,27.00
2017-07-08T19:00:12.277Z,26.90
2017-07-08T19:02:41.328Z,26.70
2017-07-08T19:05:10.601Z,26.70
2017-07-08T19:07:38.925Z,26.60
2017-07-08T19:10:07.205Z,26.50
2017-07-08T19:12:35.477Z,26.50
2017-07-08T19:15:03.791Z,26.50
2017-07-08T19:17:32.832Z,26.50
2017-07-08T19:20:01.110Z,26.50
2017-07-08T19:22:29.427Z,26.50
2017-07-08T19:24:57.701Z,26.40
2017-07-08T19:27:25.975Z,26.30
2017-07-08T19:29:54.294Z,26.20
2017-07-08T19:32:22.583Z,26.10
2017-07-08T19:34:50.857Z,26.00
2017-07-08T19:37:19.174Z,25.90
2017-07-08T19:39:47.468Z,25.90
2017-07-08T19:42:15.749Z,25.90
2017-07-08T19:44:44.048Z,25.80
2017-07-08T19:47:13.085Z,25.70
2017-07-08T19:49:41.365Z,25.60
2017-07-08T19:52:10.656Z,25.60
2017-07-08T19:54:39.697Z,25.50
2017-07-08T19:57:07.972Z,25.40
2017-07-08T19:59:36.280Z,25.50
2017-07-08T20:02:04.559Z,25.40
2017-07-08T20:04:32.829Z,25.30
2017-07-08T20:07:01.140Z,25.10
2017-07-08T20:09:29.411Z,25.00
2017-07-08T20:11:58.449Z,24.80
2017-07-08T20:14:26.840Z,24.70
2017-07-08T20:16:55.117Z,24.70
2017-07-08T20:19:24.156Z,24.60
2017-07-08T20:21:52.465Z,24.50
2017-07-08T20:24:21.504Z,24.40
2017-07-08T20:26:49.784Z,24.30
2017-07-08T20:29:18.131Z,24.40
2017-07-08T20:31:46.397Z,24.30
2017-07-08T20:34:14.665Z,24.20
2017-07-08T20:36:43.005Z,24.00
2017-07-08T20:39:12.421Z,23.80
2017-07-08T20:41:40.696Z,23.80
2017-07-08T20:44:09.773Z,23.60
2017-07-08T20:46:38.824Z,23.60
2017-07-08T20:49:07.104Z,23.50
2017-07-08T20:51:35.535Z,23.40
2017-07-08T20:54:03.797Z,23.30
2017-07-08T20:56:32.072Z,23.30
2017-07-08T20:59:00.376Z,23.40
2017-07-08T21:01:29.417Z,23.30
2017-07-08T21:03:57.684Z,23.20
2017-07-08T21:06:26.016Z,23.20
2017-07-08T21:08:54.285Z,23.10
2017-07-08T21:11:22.566Z,23.10
2017-07-08T21:13:50.869Z,23.00
2017-07-08T21:16:19.142Z,23.10
2017-07-08T21:18:47.530Z,23.10
2017-07-08T21:21:15.833Z,23.00
2017-07-08T21:23:44.869Z,23.00
2017-07-08T21:26:13.140Z,22.90
2017-07-08T21:28:41.440Z,22.90
2017-07-08T21:31:10.472Z,22.60
2017-07-08T21:33:38.748Z,22.60
2017-07-08T21:36:07.056Z,22.60
2017-07-08T21:38:35.326Z,22.60
2017-07-08T21:41:03.602Z,22.50
2017-07-08T21:43:31.929Z,22.40
2017-07-08T21:46:00.960Z,22.50
2017-07-08T21:48:29.230Z,22.50
2017-07-08T21:50:57.733Z,22.50
2017-07-08T21:53:26.765Z,22.30
2017-07-08T21:55:55.032Z,22.30
2017-07-08T21:58:23.752Z,22.20
2017-07-08T22:00:52.784Z,21.90
2017-07-08T22:03:21.053Z,21.80
2017-07-08T22:05:49.365Z,21.70
2017-07-08T22:08:17.633Z,21.60
2017-07-08T22:10:45.896Z,21.60
2017-07-08T22:13:14.212Z,21.60
2017-07-08T22:15:43.157Z,21.60
2017-07-08T22:18:11.426Z,21.60
2017-07-08T22:20:41.657Z,21.50
2017-07-08T22:23:09.937Z,21.40
2017-07-08T22:25:38.969Z,21.50
2017-07-08T22:28:07.281Z,21.40
2017-07-08T22:30:37.217Z,21.30
2017-07-08T22:33:05.491Z,21.30
2017-07-08T22:35:34.001Z,21.30
2017-07-08T22:38:02.269Z,21.20
2017-07-08T22:40:31.300Z,21.10
2017-07-08T22:42:59.709Z,21.00
2017-07-08T22:45:28.743Z,21.30
2017-07-08T22:47:57.004Z,21.20
2017-07-08T22:50:25.412Z,21.30
2017-07-08T22:52:54.453Z,21.00
2017-07-08T22:55:23.624Z,21.00
2017-07-08T22:57:51.940Z,21.00
2017-07-08T23:00:20.972Z,20.80
2017-07-08T23:02:49.241Z,20.80
2017-07-08T23:05:17.737Z,20.70
2017-07-08T23:07:46.773Z,20.70
2017-07-08T23:10:15.057Z,20.60
2017-07-08T23:12:43.359Z,20.60
2017-07-08T23:15:11.629Z,20.50
2017-07-08T23:17:39.906Z,20.40
2017-07-08T23:20:08.221Z,20.30
2017-07-08T23:22:36.492Z,20.30
2017-07-08T23:25:05.525Z,20.30
2017-07-08T23:27:34.040Z,20.30
2017-07-08T23:30:02.299Z,20.40
2017-07-08T23:32:31.333Z,20.20
2017-07-08T23:34:59.641Z,20.20
2017-07-08T23:37:28.673Z,20.30
2017-07-08T23:39:56.968Z,20.30
2017-07-08T23:42:25.283Z,20.20
2017-07-08T23:44:53.556Z,20.10
2017-07-08T23:47:21.822Z,20.20
2017-07-08T23:49:50.125Z,20.10
2017-07-08T23:52:19.160Z,20.00
2017-07-08T23:54:47.420Z,20.00
2017-07-08T23:57:15.747Z,20.00
2017-07-08T23:59:44.012Z,19.90
